Granby, Colorado
Current Conditions -  °F | °C
As of 10:35 AM on Wednesday 26 Nov 2014 (Local Time) from K20V Reporting Station
Overcast Overcast  
Wind Chill: 26°   Ceiling: 4100
Heat Index: 36°   Visibility: 10mi
Dew Point: 27°   Wind: 16mph
Humidity: 70%   Direction: 240°WSW
Pressure: 30.34"   Gusts: NA
Location:  40.09°N, 105.94°W
Report Text: K20V 261735Z AUTO 24014KT 10SM OVC041 02/M03 A3034 RMK AO2
Loading
Personal Weather Stations






























Interactive Weather Map New forecast layout! Learn more

10-Day Weather Forecast

Advertisements
Track Severe Weather on mobile